ROMMA est une association bénévole à but non lucratif. Votre soutien est indispensable : ADHERER à ROMMA ou FAIRE un DON

Granges-lès-Beaumont - (26, Drôme)

Drôme des Collines (155 m)   Longitude: 04°58'E   Latitude: 45°03'N Station partenaire n°123
 

Détail journalier du     <<     >>

Température Precipitation Humidité Pression Vent Dir Rafale Dir. rafale Ensol.
Heure (°C) (mm) (%) (hPa) (km/h) (km/h) (min)
01:00 4.7081101322NNO45NNO0
02:00 4.30.285101319NNO37NNO0
03:00 4.2084101317N39N0
04:00 4.7082101316N44N0
05:00 5.0078101322N45NNO0
06:00 4.7078101323N50NO0
07:00 4.6079101322NNO50NNO0
08:00 4.7077101427NNO53N0
09:00 5.2074101428NNO53N0
10:00 5.4073101426N56NNO0
11:00 6.9071101427NNO53NNE10
12:00 8.3065101531NNO56NNO40
13:00 9.5059101535NNO61ONO60
14:00 10.5052101535NNO64NO40
15:00 11.4050101533NNO63NO60
16:00 12.1048101630NNO60N60
17:00 10.2056101628N55N30
18:00 11.2051101625NNO63NNO50
19:00 9.6054101627NNO55NE50
20:00 8.7059101621NNO45NNO20
21:00 8.0060101620NNO40NNO0
22:00 7.2063101715N31NNE0
23:00 6.3068101711N26NNE0
minuit 5.8073101811N24NNE0

Graphique du 05-05-2019

 

Serveur OMMA